createdAt,value
2018-05-18T00:00:44.652Z,62.13
2018-05-18T00:03:11.094Z,68.53
2018-05-18T00:05:37.671Z,58.30
2018-05-18T00:08:04.090Z,62.47
2018-05-18T00:10:31.256Z,64.63
2018-05-18T00:12:57.645Z,57.20
2018-05-18T00:15:24.088Z,54.97
2018-05-18T00:17:50.530Z,55.10
2018-05-18T00:20:23.470Z,62.90
2018-05-18T00:22:49.944Z,64.43
2018-05-18T00:25:16.346Z,53.53
2018-05-18T00:27:42.765Z,57.43
2018-05-18T00:30:09.292Z,58.43
2018-05-18T00:32:35.704Z,55.10
2018-05-18T00:35:02.169Z,64.90
2018-05-18T00:37:28.567Z,58.40
2018-05-18T00:39:55.011Z,60.07
2018-05-18T00:42:22.119Z,60.00
2018-05-18T00:44:48.525Z,51.60
2018-05-18T00:47:14.998Z,62.10
2018-05-18T00:49:41.421Z,51.90
2018-05-18T00:52:08.567Z,51.50
2018-05-18T00:54:34.964Z,56.43
2018-05-18T00:57:01.379Z,53.33
2018-05-18T00:59:27.772Z,64.27
2018-05-18T01:01:54.174Z,57.13
2018-05-18T01:04:20.635Z,55.70
2018-05-18T01:06:47.044Z,57.27
2018-05-18T01:09:13.440Z,54.47
2018-05-18T01:11:39.834Z,56.87
2018-05-18T01:14:06.237Z,59.27
2018-05-18T01:16:32.650Z,55.23
2018-05-18T01:18:59.068Z,54.63
2018-05-18T01:21:25.479Z,60.27
2018-05-18T01:23:51.888Z,61.10
2018-05-18T01:26:19.098Z,57.77
2018-05-18T01:28:45.480Z,53.43
2018-05-18T01:31:11.878Z,58.03
2018-05-18T01:33:38.314Z,56.33
2018-05-18T01:36:04.775Z,59.50
2018-05-18T01:38:31.164Z,55.23
2018-05-18T01:40:57.556Z,58.67
2018-05-18T01:43:24.695Z,55.03
2018-05-18T01:45:51.838Z,55.53
2018-05-18T01:48:18.232Z,53.30
2018-05-18T01:50:44.623Z,54.43
2018-05-18T01:53:11.783Z,53.50
2018-05-18T01:55:38.369Z,59.13
2018-05-18T01:58:04.804Z,54.70
2018-05-18T02:00:31.262Z,59.13
2018-05-18T02:02:57.648Z,56.70
2018-05-18T02:05:24.049Z,59.60
2018-05-18T02:07:50.464Z,57.37
2018-05-18T02:10:17.749Z,46.93
2018-05-18T02:12:44.275Z,57.60
2018-05-18T02:15:10.706Z,61.17
2018-05-18T02:17:37.110Z,54.23
2018-05-18T02:20:04.348Z,69.07
2018-05-18T02:22:30.769Z,54.80
2018-05-18T02:24:57.195Z,63.53
2018-05-18T02:27:23.580Z,56.70
2018-05-18T02:29:50.733Z,56.00
2018-05-18T02:32:17.116Z,72.00
2018-05-18T02:34:43.509Z,59.63
2018-05-18T02:37:09.909Z,60.53
2018-05-18T02:39:36.305Z,71.13
2018-05-18T02:42:02.751Z,63.30
2018-05-18T02:44:29.154Z,60.00
2018-05-18T02:46:55.555Z,57.70
2018-05-18T02:49:22.839Z,56.70
2018-05-18T02:51:49.232Z,64.07
2018-05-18T02:54:16.376Z,67.17
2018-05-18T02:56:43.529Z,59.83
2018-05-18T02:59:10.657Z,68.33
2018-05-18T03:01:37.074Z,59.70
2018-05-18T03:04:03.475Z,55.77
2018-05-18T03:06:29.877Z,65.77
2018-05-18T03:08:57.641Z,62.00
2018-05-18T03:11:24.821Z,76.83
2018-05-18T03:13:51.227Z,67.80
2018-05-18T03:16:18.362Z,67.07
2018-05-18T03:18:44.811Z,66.57
2018-05-18T03:21:11.954Z,55.23
2018-05-18T03:23:39.092Z,62.73
2018-05-18T03:26:05.502Z,70.13
2018-05-18T03:28:31.911Z,62.57
2018-05-18T03:30:58.329Z,68.37
2018-05-18T03:33:24.710Z,60.90
2018-05-18T03:35:51.108Z,62.00
2018-05-18T03:38:17.510Z,61.67
2018-05-18T03:40:44.644Z,63.23
2018-05-18T03:43:11.798Z,73.60
2018-05-18T03:45:38.944Z,68.60
2018-05-18T03:48:05.335Z,61.53
2018-05-18T03:50:31.743Z,63.93
2018-05-18T03:52:58.279Z,72.30
2018-05-18T03:55:24.684Z,63.40
2018-05-18T03:57:51.819Z,80.77
2018-05-18T04:00:18.228Z,66.00
2018-05-18T04:02:56.911Z,69.53
2018-05-18T04:05:35.570Z,68.40
2018-05-18T04:08:06.870Z,68.70
2018-05-18T04:10:33.291Z,60.90
2018-05-18T04:13:00.425Z,62.27
2018-05-18T04:15:27.556Z,72.10
2018-05-18T04:17:53.936Z,63.90
2018-05-18T04:20:20.371Z,69.20
2018-05-18T04:22:46.818Z,60.03
2018-05-18T04:25:13.212Z,68.77
2018-05-18T04:27:39.604Z,69.10
2018-05-18T04:30:06.133Z,67.00
2018-05-18T04:32:33.972Z,61.60
2018-05-18T04:35:00.410Z,62.97
2018-05-18T04:37:26.814Z,62.53
2018-05-18T04:39:53.951Z,64.93
2018-05-18T04:42:20.364Z,57.90
2018-05-18T04:44:46.752Z,62.27
2018-05-18T04:47:13.138Z,59.07
2018-05-18T04:49:41.023Z,50.33
2018-05-18T04:52:08.172Z,58.67
2018-05-18T04:54:35.288Z,53.70
2018-05-18T04:57:01.672Z,58.07
2018-05-18T04:59:28.084Z,68.23
2018-05-18T05:01:54.506Z,76.33
2018-05-18T05:04:20.984Z,58.17
2018-05-18T05:06:47.388Z,61.13
2018-05-18T05:09:14.548Z,62.43
2018-05-18T05:11:40.994Z,62.80
2018-05-18T05:14:07.398Z,59.17
2018-05-18T05:16:33.793Z,64.03
2018-05-18T05:19:00.195Z,62.57
2018-05-18T05:21:26.692Z,53.17
2018-05-18T05:23:53.884Z,54.33
2018-05-18T05:26:20.374Z,57.17
2018-05-18T05:28:46.756Z,52.80
2018-05-18T05:31:13.173Z,61.23
2018-05-18T05:33:39.653Z,56.10
2018-05-18T05:36:07.543Z,74.40
2018-05-18T05:38:33.961Z,55.83
2018-05-18T05:41:00.363Z,53.90
2018-05-18T05:43:26.774Z,53.93
2018-05-18T05:45:53.167Z,59.60
2018-05-18T05:48:19.575Z,52.87
2018-05-18T05:50:46.020Z,94.93
2018-05-18T05:53:12.431Z,66.10
2018-05-18T05:55:38.874Z,63.70
2018-05-18T05:58:05.294Z,59.83
2018-05-18T06:00:31.712Z,59.10
2018-05-18T06:02:58.151Z,54.77
2018-05-18T06:05:24.682Z,50.93
2018-05-18T06:07:51.049Z,56.17
2018-05-18T06:10:18.952Z,58.37
2018-05-18T06:12:46.091Z,59.33
2018-05-18T06:15:12.677Z,50.00
2018-05-18T06:17:39.073Z,54.30
2018-05-18T06:20:06.223Z,54.53
2018-05-18T06:22:33.377Z,65.73
2018-05-18T06:25:00.517Z,51.20
2018-05-18T06:27:27.673Z,61.53
2018-05-18T06:29:54.806Z,54.00
2018-05-18T06:32:21.190Z,61.80
2018-05-18T06:34:47.865Z,56.33
2018-05-18T06:37:14.209Z,54.40
2018-05-18T06:39:41.361Z,60.57
2018-05-18T06:42:08.521Z,57.63
2018-05-18T06:44:35.681Z,56.30
2018-05-18T06:47:02.843Z,70.43
2018-05-18T06:49:29.248Z,55.50
2018-05-18T06:51:56.386Z,55.37
2018-05-18T06:54:22.853Z,47.83
2018-05-18T06:56:49.277Z,53.13
2018-05-18T06:59:15.674Z,61.73
2018-05-18T07:01:42.825Z,56.10
2018-05-18T07:04:09.308Z,53.53
2018-05-18T07:06:36.466Z,54.30
2018-05-18T07:09:03.031Z,56.73
2018-05-18T07:11:30.130Z,48.40
2018-05-18T07:13:56.532Z,62.43
2018-05-18T07:16:23.059Z,44.80
2018-05-18T07:18:49.445Z,44.30
2018-05-18T07:21:15.852Z,54.40
2018-05-18T07:23:43.054Z,57.77
2018-05-18T07:26:09.449Z,56.70
2018-05-18T07:28:36.570Z,51.23
2018-05-18T07:31:03.041Z,58.37
2018-05-18T07:33:29.421Z,56.87
2018-05-18T07:35:56.058Z,47.57
2018-05-18T07:38:22.478Z,79.97
2018-05-18T07:40:48.950Z,48.87
2018-05-18T07:43:16.100Z,53.73
2018-05-18T07:45:42.487Z,47.03
2018-05-18T07:48:08.886Z,46.97
2018-05-18T07:50:35.284Z,52.77
2018-05-18T07:53:01.684Z,52.80
2018-05-18T07:55:28.093Z,55.60
2018-05-18T07:57:54.500Z,45.03
2018-05-18T08:00:21.650Z,53.77
2018-05-18T08:02:48.804Z,42.03
2018-05-18T08:05:15.948Z,59.90
2018-05-18T08:07:43.137Z,50.43
2018-05-18T08:10:09.547Z,43.13
2018-05-18T08:12:36.738Z,48.73
2018-05-18T08:15:03.237Z,44.93
2018-05-18T08:17:29.564Z,59.90
2018-05-18T08:19:56.779Z,49.00
2018-05-18T08:22:23.188Z,43.73
2018-05-18T08:24:49.610Z,68.70
2018-05-18T08:27:21.769Z,39.57
2018-05-18T08:29:48.181Z,55.67
2018-05-18T08:32:15.313Z,51.43
2018-05-18T08:34:42.467Z,44.40
2018-05-18T08:37:09.639Z,47.70
2018-05-18T08:39:36.083Z,48.73
2018-05-18T08:42:02.517Z,42.30
2018-05-18T08:44:29.073Z,41.40
2018-05-18T08:46:55.493Z,49.33
2018-05-18T08:49:21.886Z,54.00
2018-05-18T08:51:49.030Z,55.90
2018-05-18T08:54:16.180Z,39.27
2018-05-18T08:56:43.327Z,51.30
2018-05-18T08:59:09.762Z,49.23
2018-05-18T09:01:36.168Z,43.00
2018-05-18T09:04:02.594Z,35.27
2018-05-18T09:06:29.018Z,49.40
2018-05-18T09:08:55.440Z,35.43
2018-05-18T09:11:21.866Z,41.53
2018-05-18T09:13:48.275Z,35.73
2018-05-18T09:16:15.426Z,44.60
2018-05-18T09:18:42.574Z,47.50
2018-05-18T09:21:09.718Z,40.13
2018-05-18T09:23:36.867Z,44.93
2018-05-18T09:26:04.038Z,38.30
2018-05-18T09:28:30.434Z,33.07
2018-05-18T09:30:57.583Z,34.77
2018-05-18T09:33:24.093Z,45.83
2018-05-18T09:35:50.520Z,48.47
2018-05-18T09:38:17.681Z,34.20
2018-05-18T09:40:44.098Z,40.60
2018-05-18T09:43:10.516Z,35.00
2018-05-18T09:45:36.978Z,43.47
2018-05-18T09:48:03.412Z,35.07
2018-05-18T09:50:29.834Z,37.20
2018-05-18T09:52:56.248Z,31.00
2018-05-18T09:55:22.775Z,29.77
2018-05-18T09:57:49.105Z,42.23
2018-05-18T10:00:15.540Z,27.27
2018-05-18T10:02:41.939Z,37.87
2018-05-18T10:05:08.335Z,44.33
2018-05-18T10:07:34.739Z,32.13
2018-05-18T10:10:01.171Z,35.57
2018-05-18T10:12:27.645Z,39.83
2018-05-18T10:14:54.443Z,31.57
2018-05-18T10:17:20.854Z,33.70
2018-05-18T10:19:47.984Z,36.37
2018-05-18T10:22:14.378Z,25.03
2018-05-18T10:24:40.787Z,26.97
2018-05-18T10:27:07.230Z,37.70
2018-05-18T10:29:33.633Z,35.67
2018-05-18T10:32:00.816Z,33.90
2018-05-18T10:34:27.359Z,29.07
2018-05-18T10:36:53.752Z,35.20
2018-05-18T10:39:20.950Z,36.43
2018-05-18T10:41:47.362Z,30.40
2018-05-18T10:44:13.759Z,30.73
2018-05-18T10:46:40.153Z,42.40
2018-05-18T10:49:06.559Z,26.10
2018-05-18T10:51:32.947Z,29.60
2018-05-18T10:53:59.349Z,26.07
2018-05-18T10:56:25.908Z,37.73
2018-05-18T10:58:53.824Z,29.63
2018-05-18T11:01:20.215Z,28.30
2018-05-18T11:03:48.155Z,33.00
2018-05-18T11:06:14.555Z,30.30
2018-05-18T11:08:41.702Z,22.83
2018-05-18T11:11:08.112Z,30.47
2018-05-18T11:13:34.511Z,29.30
2018-05-18T11:16:00.912Z,25.73
2018-05-18T11:18:27.314Z,22.33
2018-05-18T11:20:54.261Z,24.23
2018-05-18T11:23:21.427Z,26.40
2018-05-18T11:25:48.576Z,21.97
2018-05-18T11:28:15.733Z,29.37
2018-05-18T11:30:42.150Z,25.57
2018-05-18T11:33:09.388Z,24.33
2018-05-18T11:35:35.717Z,25.03
2018-05-18T11:38:02.942Z,28.23
2018-05-18T11:40:29.355Z,37.83
2018-05-18T11:42:55.760Z,20.80
2018-05-18T11:45:22.181Z,28.63
2018-05-18T11:47:49.319Z,25.60
2018-05-18T11:50:15.768Z,20.43
2018-05-18T11:52:42.924Z,26.30
2018-05-18T11:55:10.072Z,20.20
2018-05-18T11:57:36.496Z,22.00
2018-05-18T12:00:03.706Z,26.40
2018-05-18T12:02:30.204Z,21.47
2018-05-18T12:04:56.588Z,22.57
2018-05-18T12:07:24.494Z,24.57
2018-05-18T12:09:51.639Z,29.53
2018-05-18T12:12:18.842Z,18.80
2018-05-18T12:14:45.260Z,18.20
2018-05-18T12:17:11.664Z,25.40
2018-05-18T12:19:38.784Z,20.70
2018-05-18T12:22:05.949Z,18.23
2018-05-18T12:24:32.328Z,15.87
2018-05-18T12:26:58.761Z,17.37
2018-05-18T12:29:25.147Z,20.20
2018-05-18T12:31:52.631Z,25.07
2018-05-18T12:34:19.028Z,22.23
2018-05-18T12:36:46.152Z,26.70
2018-05-18T12:39:12.635Z,21.93
2018-05-18T12:41:39.040Z,18.27
2018-05-18T12:44:07.661Z,17.97
2018-05-18T12:46:34.118Z,22.63
2018-05-18T12:49:00.533Z,22.00
2018-05-18T12:51:26.943Z,20.57
2018-05-18T12:53:54.100Z,15.13
2018-05-18T12:56:20.505Z,27.47
2018-05-18T12:58:47.656Z,22.33
2018-05-18T13:01:15.598Z,20.33
2018-05-18T13:03:42.023Z,24.77
2018-05-18T13:06:10.620Z,28.90
2018-05-18T13:08:37.136Z,17.97
2018-05-18T13:11:03.519Z,20.07
2018-05-18T13:13:29.923Z,16.13
2018-05-18T13:15:56.336Z,19.23
2018-05-18T13:18:22.760Z,18.07
2018-05-18T13:20:49.163Z,17.93
2018-05-18T13:23:16.292Z,17.87
2018-05-18T13:25:42.672Z,22.80
2018-05-18T13:28:09.068Z,19.83
2018-05-18T13:30:36.293Z,19.10
2018-05-18T13:33:03.361Z,22.37
2018-05-18T13:35:29.740Z,11.87
2018-05-18T13:37:56.142Z,16.03
2018-05-18T13:40:23.286Z,21.53
2018-05-18T13:42:50.418Z,23.80
2018-05-18T13:45:16.822Z,19.90
2018-05-18T13:47:43.227Z,19.73
2018-05-18T13:50:09.682Z,17.67
2018-05-18T13:52:36.119Z,20.53
2018-05-18T13:55:02.561Z,18.50
2018-05-18T13:57:28.976Z,16.97
2018-05-18T13:59:55.368Z,17.30
2018-05-18T14:02:22.524Z,15.80
2018-05-18T14:04:48.935Z,20.23
2018-05-18T14:07:15.415Z,20.90
2018-05-18T14:09:41.850Z,16.80
2018-05-18T14:12:08.448Z,30.03
2018-05-18T14:14:36.319Z,14.53
2018-05-18T14:17:03.480Z,15.60
2018-05-18T14:19:30.650Z,16.70
2018-05-18T14:21:57.043Z,17.77
2018-05-18T14:24:23.442Z,18.63
2018-05-18T14:26:49.864Z,21.93
2018-05-18T14:29:16.266Z,24.67
2018-05-18T14:31:43.492Z,17.00
2018-05-18T14:34:09.838Z,18.97
2018-05-18T14:36:36.996Z,14.70
2018-05-18T14:39:04.523Z,11.67
2018-05-18T14:41:30.911Z,17.83
2018-05-18T14:43:57.411Z,21.33
2018-05-18T14:46:23.760Z,21.00
2018-05-18T14:48:50.886Z,24.67
2018-05-18T14:51:18.052Z,15.63
2018-05-18T14:53:45.194Z,20.30
2018-05-18T14:56:12.352Z,16.33
2018-05-18T14:58:39.549Z,14.97
2018-05-18T15:01:06.645Z,11.83
2018-05-18T15:03:33.042Z,14.97
2018-05-18T15:05:59.448Z,14.30
2018-05-18T15:08:25.949Z,15.17
2018-05-18T15:10:52.737Z,20.33
2018-05-18T15:13:19.128Z,16.93
2018-05-18T15:15:46.271Z,27.93
2018-05-18T15:18:13.418Z,23.73
2018-05-18T15:20:40.577Z,17.67
2018-05-18T15:23:07.771Z,23.07
2018-05-18T15:25:34.212Z,14.13
2018-05-18T15:28:00.611Z,14.37
2018-05-18T15:30:27.013Z,13.27
2018-05-18T15:32:54.157Z,12.00
2018-05-18T15:35:20.577Z,8.50
2018-05-18T15:37:46.976Z,11.03
2018-05-18T15:40:13.433Z,15.17
2018-05-18T15:42:39.852Z,21.43
2018-05-18T15:45:06.279Z,19.37
2018-05-18T15:47:32.677Z,18.03
2018-05-18T15:49:59.830Z,29.70
2018-05-18T15:52:26.252Z,35.67
2018-05-18T15:54:53.399Z,23.90
2018-05-18T15:57:20.649Z,281.13
2018-05-18T15:59:47.016Z,26.67
2018-05-18T16:02:13.606Z,23.30
2018-05-18T16:04:40.061Z,27.13
2018-05-18T16:07:07.248Z,18.83
2018-05-18T16:09:33.791Z,22.03
2018-05-18T16:12:00.257Z,24.33
2018-05-18T16:14:26.664Z,22.50
2018-05-18T16:16:53.072Z,22.57
2018-05-18T16:19:19.463Z,31.97
2018-05-18T16:21:45.878Z,28.70
2018-05-18T16:24:12.285Z,17.63
2018-05-18T16:26:38.666Z,22.50
2018-05-18T16:29:05.079Z,29.20
2018-05-18T16:31:31.498Z,21.90
2018-05-18T16:33:57.897Z,19.40
2018-05-18T16:36:24.432Z,20.70
2018-05-18T16:38:50.818Z,22.17
2018-05-18T16:41:17.217Z,22.60
2018-05-18T16:43:43.640Z,20.73
2018-05-18T16:46:10.070Z,18.67
2018-05-18T16:48:36.467Z,18.63
2018-05-18T16:51:02.911Z,16.17
2018-05-18T16:53:30.051Z,16.80
2018-05-18T16:55:57.194Z,14.43
2018-05-18T16:58:24.418Z,17.13
2018-05-18T17:00:50.831Z,13.97
2018-05-18T17:03:17.231Z,17.90
2018-05-18T17:05:43.638Z,14.13
2018-05-18T17:08:10.027Z,16.13
2018-05-18T17:10:36.462Z,16.77
2018-05-18T17:13:02.964Z,11.93
2018-05-18T17:15:30.145Z,18.77
2018-05-18T17:17:56.679Z,14.40
2018-05-18T17:20:23.111Z,11.80
2018-05-18T17:22:49.534Z,12.97
2018-05-18T17:25:15.930Z,15.40
2018-05-18T17:27:43.077Z,19.47
2018-05-18T17:30:09.475Z,14.70
2018-05-18T17:32:35.887Z,11.00
2018-05-18T17:35:02.327Z,12.90
2018-05-18T17:37:28.737Z,16.50
2018-05-18T17:39:55.877Z,16.30
2018-05-18T17:42:23.089Z,16.03
2018-05-18T17:44:49.454Z,15.50
2018-05-18T17:47:16.607Z,13.97
2018-05-18T17:49:43.756Z,29.13
2018-05-18T17:52:10.895Z,16.33
2018-05-18T17:54:38.059Z,20.57
2018-05-18T17:57:05.212Z,11.90
2018-05-18T17:59:32.951Z,10.47
2018-05-18T18:02:00.110Z,10.20
2018-05-18T18:04:26.524Z,15.23
2018-05-18T18:06:52.947Z,15.07
2018-05-18T18:09:19.405Z,12.40
2018-05-18T18:11:45.829Z,12.00
2018-05-18T18:14:13.006Z,14.60
2018-05-18T18:16:44.056Z,12.10
2018-05-18T18:19:10.544Z,10.60
2018-05-18T18:21:37.735Z,21.30
2018-05-18T18:24:06.134Z,15.80
2018-05-18T18:26:32.613Z,18.10
2018-05-18T18:28:59.101Z,13.90
2018-05-18T18:31:26.461Z,14.17
2018-05-18T18:33:52.935Z,11.67
2018-05-18T18:36:20.147Z,15.00
2018-05-18T18:38:46.587Z,12.10
2018-05-18T18:41:13.021Z,15.27
2018-05-18T18:43:39.480Z,17.63
2018-05-18T18:46:07.279Z,15.70
2018-05-18T18:48:34.471Z,15.70
2018-05-18T18:51:00.932Z,14.93
2018-05-18T18:53:27.383Z,10.90
2018-05-18T18:55:53.811Z,10.90
2018-05-18T18:58:20.242Z,12.10
2018-05-18T19:00:47.119Z,14.63
2018-05-18T19:03:14.268Z,16.53
2018-05-18T19:05:41.450Z,17.73
2018-05-18T19:08:07.957Z,9.83
2018-05-18T19:10:34.393Z,14.60
2018-05-18T19:13:00.833Z,14.23
2018-05-18T19:15:27.262Z,10.50
2018-05-18T19:17:53.737Z,12.57
2018-05-18T19:20:20.152Z,15.30
2018-05-18T19:22:48.297Z,14.20
2018-05-18T19:25:16.336Z,9.03
2018-05-18T19:27:42.797Z,11.30
2018-05-18T19:30:10.047Z,11.47
2018-05-18T19:32:37.188Z,11.07
2018-05-18T19:35:04.338Z,9.20
2018-05-18T19:37:31.500Z,10.43
2018-05-18T19:39:58.643Z,10.53
2018-05-18T19:42:25.796Z,10.53
2018-05-18T19:44:53.021Z,11.03
2018-05-18T19:47:19.438Z,15.87
2018-05-18T19:49:45.837Z,11.43
2018-05-18T19:52:13.095Z,19.00
2018-05-18T19:54:40.470Z,14.83
2018-05-18T19:57:06.852Z,16.20
2018-05-18T19:59:33.995Z,12.90
2018-05-18T20:02:01.426Z,14.23
2018-05-18T20:04:27.818Z,14.90
2018-05-18T20:06:54.194Z,11.83
2018-05-18T20:09:20.582Z,13.50
2018-05-18T20:11:47.068Z,13.40
2018-05-18T20:14:14.953Z,14.00
2018-05-18T20:16:42.108Z,16.17
2018-05-18T20:19:09.252Z,14.70
2018-05-18T20:21:35.672Z,16.93
2018-05-18T20:24:02.090Z,15.30
2018-05-18T20:26:28.520Z,14.20
2018-05-18T20:28:55.094Z,13.60
2018-05-18T20:31:21.581Z,15.10
2018-05-18T20:33:48.099Z,17.70
2018-05-18T20:36:14.517Z,20.20
2018-05-18T20:38:40.915Z,13.43
2018-05-18T20:41:08.207Z,12.80
2018-05-18T20:43:34.626Z,11.60
2018-05-18T20:46:01.891Z,11.93
2018-05-18T20:48:28.293Z,13.23
2018-05-18T20:50:54.693Z,14.70
2018-05-18T20:53:21.109Z,14.60
2018-05-18T20:55:47.556Z,12.50
2018-05-18T20:58:13.999Z,15.23
2018-05-18T21:00:40.391Z,16.50
2018-05-18T21:03:06.803Z,14.97
2018-05-18T21:05:34.993Z,14.53
2018-05-18T21:08:02.336Z,13.40
2018-05-18T21:10:29.480Z,12.80
2018-05-18T21:12:56.038Z,24.03
2018-05-18T21:15:22.441Z,11.90
2018-05-18T21:17:49.577Z,12.13
2018-05-18T21:20:16.086Z,14.10
2018-05-18T21:22:42.479Z,16.00
2018-05-18T21:25:08.888Z,13.60
2018-05-18T21:27:36.033Z,14.10
2018-05-18T21:30:03.195Z,13.63
2018-05-18T21:32:30.327Z,15.23
2018-05-18T21:34:56.775Z,10.97
2018-05-18T21:37:23.257Z,13.43
2018-05-18T21:39:49.665Z,21.80
2018-05-18T21:42:16.066Z,10.90
2018-05-18T21:44:43.216Z,12.47
2018-05-18T21:47:09.621Z,12.93
2018-05-18T21:49:36.022Z,14.10
2018-05-18T21:52:02.429Z,17.03
2018-05-18T21:54:29.566Z,17.20
2018-05-18T21:56:56.701Z,17.83
2018-05-18T21:59:24.590Z,17.10
2018-05-18T22:01:51.728Z,11.50
2018-05-18T22:04:18.900Z,18.50
2018-05-18T22:06:46.057Z,14.33
2018-05-18T22:09:12.461Z,12.70
2018-05-18T22:11:39.593Z,12.40
2018-05-18T22:14:06.026Z,11.53
2018-05-18T22:16:32.413Z,13.27
2018-05-18T22:18:58.855Z,15.93
2018-05-18T22:21:25.272Z,16.40
2018-05-18T22:23:51.692Z,16.10
2018-05-18T22:26:18.902Z,15.27
2018-05-18T22:28:46.078Z,17.80
2018-05-18T22:31:12.486Z,18.93
2018-05-18T22:33:38.884Z,12.53
2018-05-18T22:36:05.361Z,18.90
2018-05-18T22:38:31.852Z,19.33
2018-05-18T22:40:58.274Z,20.30
2018-05-18T22:43:24.675Z,13.87
2018-05-18T22:45:51.829Z,15.30
2018-05-18T22:48:18.239Z,17.40
2018-05-18T22:50:44.649Z,11.80
2018-05-18T22:53:11.053Z,13.67
2018-05-18T22:55:37.468Z,13.83
2018-05-18T22:58:04.620Z,11.97
2018-05-18T23:00:31.783Z,16.57
2018-05-18T23:02:58.184Z,12.03
2018-05-18T23:05:24.656Z,13.10
2018-05-18T23:07:51.048Z,11.53
2018-05-18T23:10:17.451Z,16.10
2018-05-18T23:12:43.851Z,16.00
2018-05-18T23:15:10.249Z,14.50
2018-05-18T23:17:36.651Z,16.93
2018-05-18T23:20:03.084Z,22.73
2018-05-18T23:22:29.530Z,14.00
2018-05-18T23:24:55.936Z,12.73
2018-05-18T23:27:22.391Z,12.10
2018-05-18T23:29:49.580Z,11.63
2018-05-18T23:32:16.727Z,11.50
2018-05-18T23:34:43.871Z,11.67
2018-05-18T23:37:11.024Z,12.60
2018-05-18T23:39:38.242Z,14.40
2018-05-18T23:42:04.755Z,13.63
2018-05-18T23:44:31.170Z,14.60
2018-05-18T23:46:57.636Z,14.20
2018-05-18T23:49:24.047Z,18.00
2018-05-18T23:51:50.449Z,12.40
2018-05-18T23:54:17.602Z,13.40
2018-05-18T23:56:44.744Z,11.80
2018-05-18T23:59:11.887Z,11.23
